createdAt,value
2022-09-14T00:02:08.453Z,15.95
2022-09-14T00:07:10.383Z,16.17
2022-09-14T00:12:11.962Z,16.05
2022-09-14T00:17:13.806Z,16.18
2022-09-14T00:22:15.378Z,15.73
2022-09-14T00:27:17.144Z,15.68
2022-09-14T00:32:19.057Z,15.99
2022-09-14T00:37:20.699Z,15.71
2022-09-14T00:42:22.245Z,15.56
2022-09-14T00:47:24.217Z,15.89
2022-09-14T00:52:30.297Z,15.76
2022-09-14T00:57:40.526Z,15.85
2022-09-14T01:02:42.382Z,16.06
2022-09-14T01:07:58.434Z,15.94
2022-09-14T01:13:29.446Z,15.89
2022-09-14T01:18:56.611Z,15.99
2022-09-14T01:24:21.903Z,15.93
2022-09-14T01:29:50.022Z,16.02
2022-09-14T01:35:15.233Z,16.24
2022-09-14T01:40:43.495Z,16.07
2022-09-14T01:45:52.814Z,15.88
2022-09-14T01:50:58.371Z,16.14
2022-09-14T01:56:20.389Z,16.09
2022-09-14T02:01:28.025Z,16.27
2022-09-14T02:06:40.600Z,16.19
2022-09-14T02:11:42.458Z,16.04
2022-09-14T02:16:46.260Z,16.12
2022-09-14T02:21:48.076Z,16.33
2022-09-14T02:26:52.059Z,16.08
2022-09-14T02:31:59.346Z,15.96
2022-09-14T02:37:12.234Z,16.02
2022-09-14T02:42:13.726Z,15.98
2022-09-14T02:47:18.234Z,15.95
2022-09-14T02:52:24.500Z,15.95
2022-09-14T02:57:26.156Z,15.99
2022-09-14T03:02:27.698Z,16.00
2022-09-14T03:07:29.271Z,15.93
2022-09-14T03:12:30.876Z,15.94
2022-09-14T03:17:32.740Z,15.92
2022-09-14T03:22:34.468Z,16.07
2022-09-14T03:27:36.049Z,16.19
2022-09-14T03:32:38.283Z,16.06
2022-09-14T03:37:41.811Z,16.02
2022-09-14T03:42:48.468Z,15.96
2022-09-14T03:47:50.260Z,16.00
2022-09-14T03:52:51.770Z,16.03
2022-09-14T03:57:54.694Z,15.93
2022-09-14T04:02:56.498Z,15.97
2022-09-14T04:07:58.124Z,16.01
2022-09-14T04:13:00.112Z,15.96
2022-09-14T04:18:01.645Z,16.16
2022-09-14T04:23:03.228Z,16.12
2022-09-14T04:28:19.629Z,16.18
2022-09-14T04:33:21.993Z,16.13
2022-09-14T04:38:23.953Z,16.46
2022-09-14T04:43:26.933Z,16.12
2022-09-14T04:48:29.245Z,16.12
2022-09-14T04:53:33.641Z,16.20
2022-09-14T04:58:39.460Z,16.08
2022-09-14T05:03:41.899Z,15.98
2022-09-14T05:08:44.237Z,15.92
2022-09-14T05:13:49.712Z,15.85
2022-09-14T05:18:54.667Z,15.99
2022-09-14T05:23:58.559Z,16.01
2022-09-14T05:29:01.864Z,15.97
2022-09-14T05:34:03.481Z,16.11
2022-09-14T05:39:06.162Z,16.15
2022-09-14T05:44:07.820Z,16.18
2022-09-14T05:49:09.444Z,16.21
2022-09-14T05:54:12.172Z,16.42
2022-09-14T05:59:13.904Z,16.44
2022-09-14T06:04:15.597Z,16.31
2022-09-14T06:09:17.181Z,16.46
2022-09-14T06:14:20.805Z,16.77
2022-09-14T06:19:22.333Z,16.62
2022-09-14T06:24:23.846Z,16.59
2022-09-14T06:29:26.145Z,16.52
2022-09-14T06:34:27.921Z,16.49
2022-09-14T06:39:29.619Z,16.50
2022-09-14T06:44:32.618Z,16.62
2022-09-14T06:49:34.370Z,16.56
2022-09-14T06:54:35.978Z,16.50
2022-09-14T06:59:37.507Z,16.43
2022-09-14T07:04:39.194Z,16.47
2022-09-14T07:09:41.029Z,16.43
2022-09-14T07:14:42.566Z,16.57
2022-09-14T07:19:44.085Z,16.79
2022-09-14T07:24:45.611Z,16.90
2022-09-14T07:29:47.452Z,16.90
2022-09-14T07:34:49.162Z,16.70
2022-09-14T07:39:50.903Z,16.64
2022-09-14T07:44:52.609Z,16.66
2022-09-14T07:49:54.233Z,16.71
2022-09-14T07:54:56.153Z,16.94
2022-09-14T07:59:58.498Z,16.95
2022-09-14T08:05:00.099Z,17.05
2022-09-14T08:10:02.164Z,16.86
2022-09-14T08:15:04.936Z,16.62
2022-09-14T08:20:07.164Z,16.80
2022-09-14T08:25:09.338Z,16.97
2022-09-14T08:30:13.386Z,16.77
2022-09-14T08:35:14.915Z,16.68
2022-09-14T08:40:18.111Z,16.71
2022-09-14T08:45:19.747Z,16.82
2022-09-14T08:50:22.066Z,16.75
2022-09-14T08:55:23.524Z,16.88
2022-09-14T09:00:34.660Z,16.75
2022-09-14T09:05:46.956Z,17.09
2022-09-14T09:10:52.265Z,17.31
2022-09-14T09:15:58.101Z,17.37
2022-09-14T09:21:05.829Z,17.20
2022-09-14T09:26:16.819Z,17.20
2022-09-14T09:31:23.140Z,17.26
2022-09-14T09:36:46.861Z,17.22
2022-09-14T09:41:56.416Z,17.47
2022-09-14T09:47:01.024Z,17.67
2022-09-14T09:52:09.761Z,17.82
2022-09-14T09:57:23.740Z,17.43
2022-09-14T10:02:31.236Z,17.76
2022-09-14T10:07:39.800Z,17.50
2022-09-14T10:12:47.939Z,17.71
2022-09-14T10:17:57.006Z,17.41
2022-09-14T10:23:18.610Z,17.30
2022-09-14T10:28:32.682Z,17.23
2022-09-14T10:33:35.316Z,17.35
2022-09-14T10:38:45.916Z,17.48
2022-09-14T10:44:02.706Z,17.30
2022-09-14T10:49:18.341Z,17.30
2022-09-14T10:54:32.580Z,17.42
2022-09-14T11:00:00.237Z,17.21
2022-09-14T11:05:40.417Z,17.04
2022-09-14T11:10:47.068Z,17.02
2022-09-14T11:16:10.349Z,17.07
2022-09-14T11:21:38.038Z,17.09
2022-09-14T11:27:04.728Z,17.19
2022-09-14T11:32:27.503Z,17.25
2022-09-14T11:37:50.072Z,17.34
2022-09-14T11:43:09.228Z,17.25
2022-09-14T11:48:42.312Z,17.38
2022-09-14T11:53:46.268Z,17.22
2022-09-14T11:58:47.970Z,17.20
2022-09-14T12:03:54.496Z,17.15
2022-09-14T12:09:16.544Z,17.38
2022-09-14T12:14:29.753Z,17.34
2022-09-14T12:19:32.131Z,17.47
2022-09-14T12:24:39.833Z,17.59
2022-09-14T12:29:41.483Z,17.95
2022-09-14T12:34:43.097Z,17.87
2022-09-14T12:40:31.406Z,17.95
2022-09-14T12:45:51.698Z,18.09
2022-09-14T12:50:54.749Z,18.20
2022-09-14T12:56:06.993Z,18.04
2022-09-14T13:01:14.825Z,18.05
2022-09-14T13:06:18.096Z,17.97
2022-09-14T13:11:38.810Z,18.23
2022-09-14T13:16:44.874Z,18.34
2022-09-14T13:21:49.779Z,18.50
2022-09-14T13:26:52.259Z,18.38
2022-09-14T13:31:59.701Z,18.21
2022-09-14T13:37:06.300Z,18.04
2022-09-14T13:42:09.387Z,17.85
2022-09-14T13:47:17.158Z,17.82
2022-09-14T13:52:38.561Z,17.72
2022-09-14T13:58:07.627Z,17.59
2022-09-14T14:03:24.520Z,17.48
2022-09-14T14:08:44.119Z,17.47
2022-09-14T14:13:45.724Z,17.41
2022-09-14T14:18:58.155Z,17.52
2022-09-14T14:24:28.105Z,17.71
2022-09-14T14:29:29.651Z,17.41
2022-09-14T14:34:31.822Z,17.34
2022-09-14T14:39:33.408Z,17.23
2022-09-14T14:44:35.058Z,17.27
2022-09-14T14:49:36.938Z,17.39
2022-09-14T14:54:40.994Z,17.31
2022-09-14T14:59:42.674Z,17.26
2022-09-14T15:04:44.252Z,17.21
2022-09-14T15:09:45.826Z,16.99
2022-09-14T15:14:47.355Z,16.92
2022-09-14T15:19:49.059Z,16.92
2022-09-14T15:24:50.603Z,16.92
2022-09-14T15:29:52.249Z,16.82
2022-09-14T15:34:53.933Z,16.94
2022-09-14T15:39:55.569Z,16.96
2022-09-14T15:44:57.212Z,17.02
2022-09-14T15:49:59.867Z,17.02
2022-09-14T15:55:01.541Z,16.80
2022-09-14T16:00:08.029Z,16.84
2022-09-14T16:05:16.182Z,17.03
2022-09-14T16:10:17.849Z,16.90
2022-09-14T16:15:19.554Z,16.94
2022-09-14T16:20:21.537Z,16.80
2022-09-14T16:25:23.105Z,16.67
2022-09-14T16:30:24.647Z,16.63
2022-09-14T16:35:26.266Z,16.67
2022-09-14T16:40:27.966Z,16.64
2022-09-14T16:45:29.778Z,16.55
2022-09-14T16:50:31.338Z,16.57
2022-09-14T16:55:32.912Z,16.47
2022-09-14T17:00:35.415Z,16.52
2022-09-14T17:05:37.024Z,16.41
2022-09-14T17:10:38.585Z,16.19
2022-09-14T17:15:40.106Z,16.06
2022-09-14T17:20:54.258Z,16.07
2022-09-14T17:25:56.452Z,15.97
2022-09-14T17:30:59.871Z,15.97
2022-09-14T17:36:03.534Z,15.92
2022-09-14T17:41:17.587Z,15.89
2022-09-14T17:46:21.624Z,15.84
2022-09-14T17:51:25.332Z,16.11
2022-09-14T17:56:28.844Z,15.90
2022-09-14T18:01:31.022Z,15.86
2022-09-14T18:06:38.400Z,15.76
2022-09-14T18:11:40.645Z,15.88
2022-09-14T18:16:44.150Z,15.91
2022-09-14T18:21:50.208Z,15.88
2022-09-14T18:26:53.288Z,15.87
2022-09-14T18:31:54.933Z,15.67
2022-09-14T18:36:56.652Z,15.68
2022-09-14T18:41:58.959Z,15.74
2022-09-14T18:47:00.791Z,15.69
2022-09-14T18:52:03.002Z,15.88
2022-09-14T18:57:04.719Z,15.72
2022-09-14T19:02:06.419Z,15.83
2022-09-14T19:07:08.574Z,15.84
2022-09-14T19:17:34.291Z,15.66
2022-09-14T19:22:35.928Z,15.54
2022-09-14T19:27:37.584Z,15.55
2022-09-14T19:32:39.240Z,15.48
2022-09-14T19:37:40.811Z,15.42
2022-09-14T19:42:42.408Z,15.36
2022-09-14T19:47:44.170Z,15.32
2022-09-14T19:52:45.872Z,15.26
2022-09-14T19:57:48.289Z,15.26
2022-09-14T20:02:49.933Z,15.32
2022-09-14T20:07:51.549Z,15.47
2022-09-14T20:12:54.329Z,15.38
2022-09-14T20:17:56.189Z,15.46
2022-09-14T20:22:57.688Z,15.46
2022-09-14T20:27:59.268Z,15.32
2022-09-14T20:33:00.885Z,15.30
2022-09-14T20:38:02.399Z,15.28
2022-09-14T20:43:05.163Z,15.21
2022-09-14T20:48:06.737Z,15.36
2022-09-14T20:53:08.289Z,15.39
2022-09-14T20:58:09.991Z,15.22
2022-09-14T21:03:12.745Z,15.24
2022-09-14T21:08:14.372Z,15.14
2022-09-14T21:13:16.010Z,15.21
2022-09-14T21:18:20.736Z,15.00
2022-09-14T21:23:22.411Z,14.83
2022-09-14T21:28:24.285Z,14.84
2022-09-14T21:33:25.752Z,14.86
2022-09-14T21:38:27.251Z,14.99
2022-09-14T21:43:29.329Z,14.85
2022-09-14T21:48:31.083Z,14.74
2022-09-14T21:53:33.429Z,14.65
2022-09-14T21:58:34.936Z,14.60
2022-09-14T22:03:37.039Z,14.55
2022-09-14T22:08:39.243Z,14.64
2022-09-14T22:13:41.238Z,14.72
2022-09-14T22:18:48.977Z,14.65
2022-09-14T22:23:57.517Z,14.56
2022-09-14T22:28:59.641Z,14.47
2022-09-14T22:34:01.275Z,14.37
2022-09-14T22:39:04.665Z,14.33
2022-09-14T22:44:07.441Z,14.33
2022-09-14T22:49:09.769Z,14.33
2022-09-14T22:54:11.392Z,14.42
2022-09-14T22:59:13.051Z,14.39
2022-09-14T23:04:14.700Z,14.37
2022-09-14T23:09:18.869Z,14.38
2022-09-14T23:14:20.458Z,14.49
2022-09-14T23:19:22.104Z,14.31
2022-09-14T23:24:23.796Z,14.35
2022-09-14T23:29:25.542Z,14.30
2022-09-14T23:34:27.206Z,14.23
2022-09-14T23:39:29.101Z,14.25
2022-09-14T23:44:30.641Z,14.29
2022-09-14T23:49:32.167Z,14.28
2022-09-14T23:54:33.772Z,14.33
2022-09-14T23:59:35.443Z,14.30
